EW3145 Weather Reports


time (UTC)temp
F
wind
direction
speed
knots
gust
knots
rain 1hr
in
rain 24hr
in
rain mn
in
humidity
%
barometer
mb
20200531081522 59 277 0.0 0.0 0.00 0.01 0.00 70 1009.5
20200531080017 59 322 0.0 0.0 0.00 0.01 0.00 71 1009.3
20200531074503 59 259 2.6 8.7 0.00 0.19 0.00 70 1009.3
20200531073128 60 259 0.0 0.0 0.00 0.19 0.00 70 1009.2
20200531071632 60 327 0.0 0.0 0.00 0.19 0.00 69 1009.1
20200531070055 61 275 0.0 0.0 0.00 0.19 0.00 68 1008.9
20200531064611 61 286 0.0 0.0 0.00 0.19 0.00 67 1008.6
20200531063059 62 279 0.0 0.0 0.00 0.19 0.00 67 1008.8
20200531061553 63 259 0.0 0.0 0.00 0.19 0.00 67 1008.8
20200531060017 63 311 0.0 0.0 0.00 0.19 0.00 66 1008.8
20200531054630 63 351 0.0 2.6 0.00 0.19 0.00 66 1008.7
20200531053253 63 321 0.0 0.0 0.00 0.19 0.00 65 1008.6
20200531051611 63 300 0.0 0.0 0.00 0.19 0.00 65 1008.6
20200531050051 63 323 0.0 0.0 0.00 0.19 0.00 66 1008.5
20200531044522 63 294 0.0 0.0 0.00 0.19 0.19 66 1008.3
20200531043015 63 306 0.0 0.0 0.00 0.19 0.19 65 1008.3
20200531041717 64 298 0.0 7.0 0.00 0.19 0.19 64 1008.2
20200531034617 64 323 0.0 0.0 0.00 0.19 0.19 63 1008.4
20200531033136 65 253 0.0 8.7 0.00 0.19 0.19 63 1008.4
20200531031510 65 306 1.7 5.2 0.00 0.19 0.19 62 1008.3
20200531030007 66 323 0.0 10.4 0.00 0.19 0.19 61 1008.3
20200531024618 67 281 0.0 0.9 0.00 0.19 0.19 59 1008.3
20200531023140 67 286 2.6 9.6 0.00 0.19 0.19 57 1008.2
20200531021551 66 314 0.0 0.0 0.00 0.19 0.19 60 1008.2
20200531020113 66 262 0.0 0.0 0.00 0.19 0.19 59 1007.7
20200531014517 67 272 0.0 0.0 0.00 0.19 0.19 57 1007.6
20200531013012 67 268 0.0 0.0 0.00 0.19 0.19 59 1007.7
20200531011834 68 268 0.0 0.0 0.00 0.19 0.19 57 1007.6
20200531010131 69 271 0.0 0.0 0.00 0.19 0.19 57 1007.5
20200531004600 70 271 0.0 0.0 0.00 0.19 0.19 56 1007.3
20200531003035 72 271 0.0 0.0 0.00 0.19 0.19 53 1007.0
20200531001529 73 271 0.0 0.0 0.00 0.19 0.19 48 1006.8
20200531000038 74 271 0.0 0.0 0.00 0.19 0.19 46 1007.0
20200530234643 75 286 0.0 1.7 0.00 0.19 0.19 42 1007.1
20200530233115 76 271 0.0 5.2 0.00 0.19 0.19 41 1007.0
20200530231558 77 246 0.0 1.7 0.00 0.19 0.19 40 1007.0
20200530230100 78 297 0.0 3.5 0.00 0.19 0.19 40 1006.8
20200530224536 78 248 0.0 0.9 0.00 0.19 0.19 40 1006.7
20200530223024 79 269 0.0 8.7 0.00 0.19 0.19 38 1006.6
20200530221711 80 296 0.0 0.0 0.00 0.19 0.19 37 1006.6
20200530220315 80 296 0.0 0.0 0.00 0.19 0.19 37 1006.5
20200530214613 80 294 0.0 7.0 0.00 0.19 0.19 38 1006.5
20200530213125 80 302 0.0 6.1 0.00 0.19 0.19 38 1006.5
20200530211537 81 266 0.0 6.1 0.00 0.19 0.19 38 1006.5
20200530210036 81 215 0.0 6.1 0.00 0.19 0.19 39 1006.5
20200530204507 81 302 0.0 0.0 0.00 0.19 0.19 39 1006.5
20200530203008 82 294 0.0 7.0 0.00 0.19 0.19 39 1006.5
20200530201651 81 280 0.0 3.5 0.00 0.19 0.19 39 1006.5
20200530200058 82 334 0.0 0.0 0.00 0.19 0.19 39 1006.5
20200530194618 82 300 0.0 0.0 0.00 0.19 0.19 39 1006.6
20200530193038 82 288 0.0 0.9 0.00 0.19 0.19 40 1006.4
20200530191625 82 348 0.0 0.0 0.00 0.19 0.19 39 1006.4
20200530190006 83 311 0.0 0.0 0.00 0.19 0.19 41 1006.5
20200530184510 83 313 1.7 9.6 0.00 0.19 0.19 40 1006.7
20200530183103 81 334 0.0 0.0 0.00 0.19 0.19 42 1006.6
20200530181607 81 333 0.0 5.2 0.00 0.19 0.19 40 1006.6
20200530180038 83 250 0.0 0.0 0.00 0.19 0.19 40 1006.8
20200530174547 83 277 0.9 8.7 0.00 0.19 0.19 40 1006.8
20200530173116 82 302 0.0 2.6 0.00 0.19 0.19 41 1006.9
20200530171651 82 319 0.0 7.0 0.00 0.19 0.19 41 1006.9
20200530170108 82 328 0.0 0.0 0.00 0.19 0.19 42 1006.9
20200530164535 82 349 0.0 4.3 0.00 0.19 0.19 42 1007.2
20200530163057 81 323 0.0 0.9 0.00 0.19 0.19 43 1007.3
20200530161535 80 267 3.5 7.0 0.00 0.19 0.19 44 1007.5
20200530160002 79 260 0.0 0.9 0.00 0.19 0.19 46 1007.7
20200530154502 79 294 0.9 8.7 0.00 0.19 0.19 46 1007.7
20200530153123 78 306 0.0 0.0 0.00 0.19 0.19 47 1007.7
20200530151557 78 229 0.0 0.0 0.00 0.19 0.19 48 1007.9
20200530150024 78 249 0.0 7.8 0.00 0.19 0.19 48 1007.8
20200530144524 79 264 0.0 5.2 0.00 0.19 0.19 47 1007.6
20200530143006 79 347 0.0 8.7 0.00 0.19 0.19 49 1007.5
20200530141500 78 234 0.0 10.4 0.00 0.19 0.19 52 1007.5
20200530140116 77 254 0.0 7.8 0.00 0.19 0.19 55 1007.4
20200530134617 77 313 0.0 0.9 0.00 0.19 0.19 57 1007.5
20200530133055 78 311 0.0 0.0 0.00 0.19 0.19 58 1007.6
20200530131554 79 334 0.9 7.0 0.01 0.19 0.19 56 1007.6
20200530130007 78 281 0.0 0.9 0.01 0.19 0.19 60 1007.7
20200530124505 76 227 0.0 7.8 0.01 0.19 0.19 64 1007.5
20200530123117 76 281 0.0 0.0 0.01 0.19 0.19 69 1007.4
20200530121835 74 180 0.0 7.0 0.00 0.18 0.18 74 1007.1
20200530120110 72 243 0.0 0.9 0.00 0.18 0.18 86 1007.0
20200530114619 70 250 0.0 0.0 0.00 0.18 0.18 95 1007.1
20200530113219 69 188 0.0 0.0 0.00 0.18 0.18 97 1006.8
20200530111636 68 174 0.0 0.0 0.00 0.18 0.18 96 1006.6
20200530110110 68 185 0.0 0.0 0.00 0.18 0.18 97 1006.8
20200530104601 68 164 0.0 0.0 0.00 0.18 0.18 97 1006.7
20200530103022 68 270 0.0 0.0 0.00 0.18 0.18 96 1006.9
20200530101516 68 164 0.0 0.0 0.00 0.18 0.18 96 1006.7
20200530100119 68 164 0.0 0.0 0.00 0.18 0.18 96 1006.6
20200530094708 68 180 0.0 0.0 0.00 0.18 0.18 96 1006.4
20200530093038 68 163 0.0 0.0 0.00 0.18 0.18 96 1006.4
20200530091704 68 196 0.0 0.0 0.00 0.18 0.18 96 1006.4
20200530090105 68 197 0.0 0.0 0.00 0.18 0.18 96 1006.1
20200530084546 68 163 0.0 0.0 0.00 0.18 0.18 96 1005.9
20200530083220 68 175 0.0 0.0 0.00 0.18 0.18 96 1006.2